sensor_id;sensor_type;location;lat;lon;timestamp;pressure;altitude;pressure_sealevel;temperature;humidity
73103;BME280;61294;65.988;29.172;2023-05-22T00:01:35;99562.34;;;10.43;61.78
73103;BME280;61294;65.988;29.172;2023-05-22T00:04:07;99602.00;;;10.60;61.30
73103;BME280;61294;65.988;29.172;2023-05-22T00:06:33;99565.88;;;10.47;61.81
73103;BME280;61294;65.988;29.172;2023-05-22T00:08:59;99568.44;;;10.41;61.73
73103;BME280;61294;65.988;29.172;2023-05-22T00:11:24;99602.50;;;10.28;62.68
73103;BME280;61294;65.988;29.172;2023-05-22T00:13:50;99603.56;;;10.40;63.03
73103;BME280;61294;65.988;29.172;2023-05-22T00:16:16;99599.25;;;10.48;62.26
73103;BME280;61294;65.988;29.172;2023-05-22T00:18:42;99599.16;;;10.40;62.84
73103;BME280;61294;65.988;29.172;2023-05-22T00:21:09;99597.44;;;10.41;62.61
73103;BME280;61294;65.988;29.172;2023-05-22T00:23:35;99566.44;;;10.23;62.84
73103;BME280;61294;65.988;29.172;2023-05-22T00:26:01;99544.28;;;10.02;62.78
73103;BME280;61294;65.988;29.172;2023-05-22T00:28:27;99594.50;;;10.19;63.19
73103;BME280;61294;65.988;29.172;2023-05-22T00:30:53;99591.81;;;10.16;63.22
73103;BME280;61294;65.988;29.172;2023-05-22T00:33:19;99598.84;;;10.15;63.24
73103;BME280;61294;65.988;29.172;2023-05-22T00:35:45;99600.59;;;10.15;63.03
73103;BME280;61294;65.988;29.172;2023-05-22T00:38:27;99596.19;;;10.12;63.25
73103;BME280;61294;65.988;29.172;2023-05-22T00:40:54;99603.97;;;10.05;63.79
73103;BME280;61294;65.988;29.172;2023-05-22T00:43:20;99602.25;;;10.07;63.42
73103;BME280;61294;65.988;29.172;2023-05-22T00:45:46;99604.03;;;10.08;63.17
73103;BME280;61294;65.988;29.172;2023-05-22T00:48:12;99569.63;;;9.94;63.49
73103;BME280;61294;65.988;29.172;2023-05-22T00:50:38;99564.34;;;9.92;63.11
73103;BME280;61294;65.988;29.172;2023-05-22T00:53:04;99603.88;;;9.97;62.91
73103;BME280;61294;65.988;29.172;2023-05-22T00:55:30;99558.81;;;9.71;63.61
73103;BME280;61294;65.988;29.172;2023-05-22T00:57:56;99597.47;;;9.76;63.18
73103;BME280;61294;65.988;29.172;2023-05-22T01:00:22;99551.53;;;9.53;63.93
73103;BME280;61294;65.988;29.172;2023-05-22T01:02:48;99603.63;;;9.77;63.70
73103;BME280;61294;65.988;29.172;2023-05-22T01:05:15;99592.16;;;9.73;64.40
73103;BME280;61294;65.988;29.172;2023-05-22T01:07:44;99595.66;;;9.71;64.07
73103;BME280;61294;65.988;29.172;2023-05-22T01:10:10;99607.09;;;9.76;63.71
73103;BME280;61294;65.988;29.172;2023-05-22T01:18:14;99595.53;;;9.64;64.27
73103;BME280;61294;65.988;29.172;2023-05-22T01:20:56;99607.91;;;9.72;64.18
73103;BME280;61294;65.988;29.172;2023-05-22T01:30:07;99585.75;;;9.53;64.57
73103;BME280;61294;65.988;29.172;2023-05-22T01:32:38;99606.06;;;9.64;64.98
73103;BME280;61294;65.988;29.172;2023-05-22T01:35:09;99608.56;;;9.54;65.50
73103;BME280;61294;65.988;29.172;2023-05-22T01:37:37;99616.47;;;9.55;65.33
73103;BME280;61294;65.988;29.172;2023-05-22T01:40:03;99612.09;;;9.57;65.62
73103;BME280;61294;65.988;29.172;2023-05-22T01:42:31;99606.63;;;9.43;64.84
73103;BME280;61294;65.988;29.172;2023-05-22T01:44:58;99605.81;;;9.47;64.88
73103;BME280;61294;65.988;29.172;2023-05-22T01:47:23;99612.88;;;9.50;65.06
73103;BME280;61294;65.988;29.172;2023-05-22T01:49:49;99611.03;;;9.44;65.89
73103;BME280;61294;65.988;29.172;2023-05-22T01:52:30;99578.38;;;9.30;65.67
73103;BME280;61294;65.988;29.172;2023-05-22T01:55:11;99621.66;;;9.50;66.03
73103;BME280;61294;65.988;29.172;2023-05-22T01:57:46;99586.34;;;9.36;66.57
73103;BME280;61294;65.988;29.172;2023-05-22T02:00:20;99623.31;;;9.44;66.31
73103;BME280;61294;65.988;29.172;2023-05-22T02:02:58;99588.09;;;9.34;66.41
73103;BME280;61294;65.988;29.172;2023-05-22T02:05:26;99620.75;;;9.50;66.11
73103;BME280;61294;65.988;29.172;2023-05-22T02:07:55;99623.31;;;9.44;66.70
73103;BME280;61294;65.988;29.172;2023-05-22T02:10:24;99586.28;;;9.30;67.31
73103;BME280;61294;65.988;29.172;2023-05-22T02:12:52;99628.50;;;9.39;67.59
73103;BME280;61294;65.988;29.172;2023-05-22T02:15:19;99629.41;;;9.41;67.22
73103;BME280;61294;65.988;29.172;2023-05-22T02:17:45;99562.38;;;9.16;67.18
73103;BME280;61294;65.988;29.172;2023-05-22T02:20:14;99624.28;;;9.50;67.26
73103;BME280;61294;65.988;29.172;2023-05-22T02:22:45;99626.84;;;9.47;67.68
73103;BME280;61294;65.988;29.172;2023-05-22T02:25:12;99622.28;;;9.36;67.91
73103;BME280;61294;65.988;29.172;2023-05-22T02:27:47;99626.44;;;9.21;68.26
73103;BME280;61294;65.988;29.172;2023-05-22T02:30:14;99626.75;;;9.41;67.83
73103;BME280;61294;65.988;29.172;2023-05-22T02:32:41;99558.00;;;9.15;67.37
73103;BME280;61294;65.988;29.172;2023-05-22T02:35:07;99591.69;;;9.39;67.10
73103;BME280;61294;65.988;29.172;2023-05-22T02:37:33;99596.19;;;9.48;67.27
73103;BME280;61294;65.988;29.172;2023-05-22T02:39:59;99591.00;;;9.53;67.43
73103;BME280;61294;65.988;29.172;2023-05-22T02:42:25;99610.53;;;9.70;67.31
73103;BME280;61294;65.988;29.172;2023-05-22T02:44:50;99618.41;;;9.70;67.57
73103;BME280;61294;65.988;29.172;2023-05-22T02:47:16;99565.53;;;9.50;67.99
73103;BME280;61294;65.988;29.172;2023-05-22T02:49:42;99632.66;;;9.86;67.88
73103;BME280;61294;65.988;29.172;2023-05-22T02:52:07;99589.53;;;9.75;67.86
73103;BME280;61294;65.988;29.172;2023-05-22T02:54:33;99555.91;;;9.50;67.90
73103;BME280;61294;65.988;29.172;2023-05-22T02:56:59;99601.06;;;9.84;67.91
73103;BME280;61294;65.988;29.172;2023-05-22T02:59:24;99566.69;;;9.69;67.84
73103;BME280;61294;65.988;29.172;2023-05-22T03:01:50;99632.06;;;10.06;67.92
73103;BME280;61294;65.988;29.172;2023-05-22T03:04:18;99637.50;;;10.18;68.53
73103;BME280;61294;65.988;29.172;2023-05-22T03:06:44;99636.72;;;10.25;68.67
73103;BME280;61294;65.988;29.172;2023-05-22T03:09:11;99645.59;;;10.32;67.96
73103;BME280;61294;65.988;29.172;2023-05-22T03:11:37;99630.75;;;10.40;67.70
73103;BME280;61294;65.988;29.172;2023-05-22T03:14:02;99637.00;;;10.47;67.90
73103;BME280;61294;65.988;29.172;2023-05-22T03:16:28;99636.19;;;10.52;68.04
73103;BME280;61294;65.988;29.172;2023-05-22T03:19:10;99643.31;;;10.63;67.58
73103;BME280;61294;65.988;29.172;2023-05-22T03:21:37;99636.41;;;10.73;67.47
73103;BME280;61294;65.988;29.172;2023-05-22T03:24:03;99642.59;;;10.75;67.15
73103;BME280;61294;65.988;29.172;2023-05-22T03:26:29;99638.16;;;10.72;67.94
73103;BME280;61294;65.988;29.172;2023-05-22T03:28:55;99633.88;;;10.83;67.12
73103;BME280;61294;65.988;29.172;2023-05-22T03:31:24;99633.13;;;10.95;66.56
73103;BME280;61294;65.988;29.172;2023-05-22T03:33:50;99639.38;;;11.08;66.72
73103;BME280;61294;65.988;29.172;2023-05-22T03:36:17;99628.00;;;11.14;67.38
73103;BME280;61294;65.988;29.172;2023-05-22T03:38:43;99643.03;;;11.26;66.42
73103;BME280;61294;65.988;29.172;2023-05-22T03:41:09;99635.22;;;11.38;65.83
73103;BME280;61294;65.988;29.172;2023-05-22T03:43:34;99591.19;;;11.26;65.94
73103;BME280;61294;65.988;29.172;2023-05-22T03:46:00;99629.25;;;11.61;64.83
73103;BME280;61294;65.988;29.172;2023-05-22T03:48:26;99632.84;;;11.72;65.07
73103;BME280;61294;65.988;29.172;2023-05-22T03:50:52;99635.56;;;11.84;65.07
73103;BME280;61294;65.988;29.172;2023-05-22T03:53:18;99596.75;;;11.72;65.19
73103;BME280;61294;65.988;29.172;2023-05-22T03:55:43;99639.25;;;12.09;64.45
73103;BME280;61294;65.988;29.172;2023-05-22T03:58:09;99634.00;;;12.19;64.24
73103;BME280;61294;65.988;29.172;2023-05-22T04:00:35;99635.81;;;12.26;63.92
73103;BME280;61294;65.988;29.172;2023-05-22T04:03:03;99637.59;;;12.33;63.88
73103;BME280;61294;65.988;29.172;2023-05-22T04:05:29;99630.59;;;12.45;63.79
73103;BME280;61294;65.988;29.172;2023-05-22T04:07:56;99634.16;;;12.65;62.33
73103;BME280;61294;65.988;29.172;2023-05-22T04:10:22;99605.94;;;12.63;62.10
73103;BME280;61294;65.988;29.172;2023-05-22T04:12:48;99623.63;;;12.87;62.48
73103;BME280;61294;65.988;29.172;2023-05-22T04:15:14;99626.28;;;12.99;62.83
73103;BME280;61294;65.988;29.172;2023-05-22T04:17:40;99628.06;;;13.09;61.72
73103;BME280;61294;65.988;29.172;2023-05-22T04:20:06;99591.91;;;13.04;61.53
73103;BME280;61294;65.988;29.172;2023-05-22T04:22:33;99625.44;;;13.26;60.81
73103;BME280;61294;65.988;29.172;2023-05-22T04:24:58;99624.56;;;13.29;60.83
73103;BME280;61294;65.988;29.172;2023-05-22T04:27:24;99626.34;;;13.39;59.93
73103;BME280;61294;65.988;29.172;2023-05-22T04:29:51;99607.81;;;13.49;59.19
73103;BME280;61294;65.988;29.172;2023-05-22T04:32:17;99614.84;;;13.60;58.04
73103;BME280;61294;65.988;29.172;2023-05-22T04:34:47;99550.47;;;13.30;56.31
73103;BME280;61294;65.988;29.172;2023-05-22T04:37:14;99611.31;;;13.69;55.88
73103;BME280;61294;65.988;29.172;2023-05-22T04:39:40;99615.72;;;13.81;54.80
73103;BME280;61294;65.988;29.172;2023-05-22T04:42:06;99625.41;;;13.88;54.56
73103;BME280;61294;65.988;29.172;2023-05-22T04:44:33;99582.19;;;13.69;53.71
73103;BME280;61294;65.988;29.172;2023-05-22T04:47:01;99624.50;;;13.97;53.33
73103;BME280;61294;65.988;29.172;2023-05-22T04:49:27;99590.06;;;13.88;53.52
73103;BME280;61294;65.988;29.172;2023-05-22T04:51:54;99618.25;;;14.09;53.20
73103;BME280;61294;65.988;29.172;2023-05-22T04:54:22;99583.94;;;13.81;53.78
73103;BME280;61294;65.988;29.172;2023-05-22T04:56:49;99598.91;;;13.85;52.50
73103;BME280;61294;65.988;29.172;2023-05-22T04:59:16;99611.25;;;13.89;52.63
73103;BME280;61294;65.988;29.172;2023-05-22T05:01:44;99596.25;;;13.82;52.42
73103;BME280;61294;65.988;29.172;2023-05-22T05:04:10;99556.59;;;13.71;51.73
73103;BME280;61294;65.988;29.172;2023-05-22T05:06:36;99564.50;;;13.82;51.76
73103;BME280;61294;65.988;29.172;2023-05-22T05:09:03;99612.94;;;14.15;51.13
73103;BME280;61294;65.988;29.172;2023-05-22T05:11:29;99607.66;;;14.10;51.05
73103;BME280;61294;65.988;29.172;2023-05-22T05:13:55;99609.44;;;14.10;50.93
73103;BME280;61294;65.988;29.172;2023-05-22T05:16:22;99572.38;;;14.07;50.47
73103;BME280;61294;65.988;29.172;2023-05-22T05:18:49;99597.84;;;14.34;50.06
73103;BME280;61294;65.988;29.172;2023-05-22T05:21:16;99582.81;;;14.35;50.22
73103;BME280;61294;65.988;29.172;2023-05-22T05:23:42;99580.13;;;14.44;50.01
73103;BME280;61294;65.988;29.172;2023-05-22T05:26:08;99580.13;;;14.45;49.75
73103;BME280;61294;65.988;29.172;2023-05-22T05:28:34;99598.56;;;14.72;49.67
73103;BME280;61294;65.988;29.172;2023-05-22T05:31:00;99570.31;;;14.66;49.03
73103;BME280;61294;65.988;29.172;2023-05-22T05:33:26;99599.34;;;14.91;48.75
73103;BME280;61294;65.988;29.172;2023-05-22T05:35:52;99568.44;;;14.80;49.22
73103;BME280;61294;65.988;29.172;2023-05-22T05:38:18;99592.13;;;15.08;49.40
73103;BME280;61294;65.988;29.172;2023-05-22T05:40:44;99597.19;;;15.33;49.09
73103;BME280;61294;65.988;29.172;2023-05-22T05:43:10;99591.84;;;15.36;48.38
73103;BME280;61294;65.988;29.172;2023-05-22T05:45:38;99565.34;;;15.34;48.44
73103;BME280;61294;65.988;29.172;2023-05-22T05:48:04;99590.75;;;15.59;48.12
73103;BME280;61294;65.988;29.172;2023-05-22T05:50:30;99564.19;;;15.60;45.94
73103;BME280;61294;65.988;29.172;2023-05-22T05:52:56;99572.94;;;15.70;46.45
73103;BME280;61294;65.988;29.172;2023-05-22T05:55:23;99559.69;;;15.67;46.93
73103;BME280;61294;65.988;29.172;2023-05-22T05:57:49;99588.66;;;15.93;46.27
73103;BME280;61294;65.988;29.172;2023-05-22T06:00:15;99579.75;;;15.97;45.53
73103;BME280;61294;65.988;29.172;2023-05-22T06:02:42;99558.47;;;16.00;45.16
73103;BME280;61294;65.988;29.172;2023-05-22T06:05:08;99579.59;;;16.11;45.35
73103;BME280;61294;65.988;29.172;2023-05-22T06:07:34;99583.94;;;16.18;44.11
73103;BME280;61294;65.988;29.172;2023-05-22T06:10:04;99546.03;;;16.02;44.48
73103;BME280;61294;65.988;29.172;2023-05-22T06:12:31;99584.59;;;16.34;44.01
73103;BME280;61294;65.988;29.172;2023-05-22T06:14:56;99584.34;;;16.53;43.39
73103;BME280;61294;65.988;29.172;2023-05-22T06:17:22;99585.97;;;16.65;44.63
73103;BME280;61294;65.988;29.172;2023-05-22T06:19:48;99577.97;;;16.66;43.95
73103;BME280;61294;65.988;29.172;2023-05-22T06:22:14;99583.22;;;16.71;44.34
73103;BME280;61294;65.988;29.172;2023-05-22T06:24:40;99567.34;;;16.65;43.34
73103;BME280;61294;65.988;29.172;2023-05-22T06:27:06;99577.00;;;16.72;43.15
73103;BME280;61294;65.988;29.172;2023-05-22T06:29:31;99584.03;;;16.78;42.90
73103;BME280;61294;65.988;29.172;2023-05-22T06:31:57;99590.31;;;16.72;43.37
73103;BME280;61294;65.988;29.172;2023-05-22T06:34:23;99556.69;;;16.66;41.48
73103;BME280;61294;65.988;29.172;2023-05-22T06:36:50;99580.47;;;16.76;43.06
73103;BME280;61294;65.988;29.172;2023-05-22T06:39:17;99598.97;;;16.85;43.98
73103;BME280;61294;65.988;29.172;2023-05-22T06:41:43;99594.63;;;16.79;44.35
73103;BME280;61294;65.988;29.172;2023-05-22T06:44:09;99589.38;;;16.76;43.22
73103;BME280;61294;65.988;29.172;2023-05-22T06:46:36;99595.44;;;16.84;43.54
73103;BME280;61294;65.988;29.172;2023-05-22T06:49:02;99572.56;;;16.72;43.38
73103;BME280;61294;65.988;29.172;2023-05-22T06:51:28;99562.63;;;16.84;43.36
73103;BME280;61294;65.988;29.172;2023-05-22T06:53:54;99571.25;;;17.01;42.32
73103;BME280;61294;65.988;29.172;2023-05-22T06:56:20;99573.75;;;17.12;42.39
73103;BME280;61294;65.988;29.172;2023-05-22T06:58:47;99608.16;;;17.24;41.70
73103;BME280;61294;65.988;29.172;2023-05-22T07:01:13;99597.53;;;17.23;41.31
73103;BME280;61294;65.988;29.172;2023-05-22T07:03:38;99572.88;;;17.12;42.28
73103;BME280;61294;65.988;29.172;2023-05-22T07:06:04;99594.69;;;17.32;41.17
73103;BME280;61294;65.988;29.172;2023-05-22T07:08:31;99598.78;;;17.53;41.11
73103;BME280;61294;65.988;29.172;2023-05-22T07:10:57;99600.34;;;17.65;40.15
73103;BME280;61294;65.988;29.172;2023-05-22T07:13:22;99598.22;;;17.83;41.45
73103;BME280;61294;65.988;29.172;2023-05-22T07:15:49;99598.19;;;17.86;41.56
73103;BME280;61294;65.988;29.172;2023-05-22T07:18:15;99605.13;;;17.96;41.35
73103;BME280;61294;65.988;29.172;2023-05-22T07:20:41;99603.31;;;17.97;41.76
73103;BME280;61294;65.988;29.172;2023-05-22T07:23:06;99574.13;;;17.89;42.15
73103;BME280;61294;65.988;29.172;2023-05-22T07:25:33;99601.94;;;18.21;42.61
73103;BME280;61294;65.988;29.172;2023-05-22T07:27:59;99564.25;;;17.97;40.07
73103;BME280;61294;65.988;29.172;2023-05-22T07:30:28;99570.06;;;18.16;39.95
73103;BME280;61294;65.988;29.172;2023-05-22T07:32:54;99583.81;;;18.37;40.93
73103;BME280;61294;65.988;29.172;2023-05-22T07:35:19;99594.78;;;18.65;42.04
73103;BME280;61294;65.988;29.172;2023-05-22T07:37:45;99586.41;;;18.80;42.29
73103;BME280;61294;65.988;29.172;2023-05-22T07:40:11;99564.94;;;18.87;42.26
73103;BME280;61294;65.988;29.172;2023-05-22T07:42:37;99585.97;;;19.01;39.93
73103;BME280;61294;65.988;29.172;2023-05-22T07:45:04;99554.22;;;18.90;39.68
73103;BME280;61294;65.988;29.172;2023-05-22T07:47:30;99598.13;;;19.14;39.79
73103;BME280;61294;65.988;29.172;2023-05-22T07:49:55;99588.09;;;19.22;39.81
73103;BME280;61294;65.988;29.172;2023-05-22T07:52:21;99554.59;;;19.10;39.95
73103;BME280;61294;65.988;29.172;2023-05-22T07:54:48;99577.09;;;19.36;39.53
73103;BME280;61294;65.988;29.172;2023-05-22T07:57:14;99582.56;;;19.31;37.40
73103;BME280;61294;65.988;29.172;2023-05-22T07:59:40;99581.94;;;19.20;36.38
73103;BME280;61294;65.988;29.172;2023-05-22T08:02:08;99579.34;;;19.17;38.07
73103;BME280;61294;65.988;29.172;2023-05-22T08:04:34;99556.22;;;19.16;38.45
73103;BME280;61294;65.988;29.172;2023-05-22T08:07:00;99552.94;;;19.05;37.77
73103;BME280;61294;65.988;29.172;2023-05-22T08:09:26;99583.47;;;19.30;37.41
73103;BME280;61294;65.988;29.172;2023-05-22T08:11:51;99561.59;;;19.14;38.42
73103;BME280;61294;65.988;29.172;2023-05-22T08:14:17;99554.19;;;19.26;38.71
73103;BME280;61294;65.988;29.172;2023-05-22T08:16:43;99558.22;;;19.42;38.76
73103;BME280;61294;65.988;29.172;2023-05-22T08:19:08;99551.00;;;19.46;38.11
73103;BME280;61294;65.988;29.172;2023-05-22T08:21:34;99577.47;;;19.55;37.85
73103;BME280;61294;65.988;29.172;2023-05-22T08:24:01;99546.56;;;19.45;36.33
73103;BME280;61294;65.988;29.172;2023-05-22T08:26:27;99569.13;;;19.67;36.77
73103;BME280;61294;65.988;29.172;2023-05-22T08:28:53;99564.69;;;19.66;36.66
73103;BME280;61294;65.988;29.172;2023-05-22T08:31:19;99570.75;;;19.73;37.88
73103;BME280;61294;65.988;29.172;2023-05-22T08:33:45;99565.19;;;19.82;38.20
73103;BME280;61294;65.988;29.172;2023-05-22T08:36:11;99536.97;;;19.71;37.36
73103;BME280;61294;65.988;29.172;2023-05-22T08:38:37;99565.50;;;20.03;36.87
73103;BME280;61294;65.988;29.172;2023-05-22T08:41:03;99529.41;;;20.18;36.64
73103;BME280;61294;65.988;29.172;2023-05-22T08:43:31;99560.66;;;20.76;38.20
73103;BME280;61294;65.988;29.172;2023-05-22T08:46:03;99553.38;;;21.34;38.32
73103;BME280;61294;65.988;29.172;2023-05-22T08:48:31;99564.38;;;21.53;36.84
73103;BME280;61294;65.988;29.172;2023-05-22T08:51:04;99526.78;;;21.28;34.46
73103;BME280;61294;65.988;29.172;2023-05-22T08:53:33;99550.44;;;21.15;36.02
73103;BME280;61294;65.988;29.172;2023-05-22T08:56:01;99556.72;;;21.14;35.65
73103;BME280;61294;65.988;29.172;2023-05-22T08:58:28;99535.91;;;21.23;34.75
73103;BME280;61294;65.988;29.172;2023-05-22T09:00:54;99527.28;;;21.40;35.47
73103;BME280;61294;65.988;29.172;2023-05-22T09:03:20;99550.94;;;22.04;37.29
73103;BME280;61294;65.988;29.172;2023-05-22T09:05:47;99520.53;;;21.80;33.14
73103;BME280;61294;65.988;29.172;2023-05-22T09:08:14;99546.50;;;22.27;34.07
73103;BME280;61294;65.988;29.172;2023-05-22T09:10:40;99549.44;;;22.20;32.67
73103;BME280;61294;65.988;29.172;2023-05-22T09:13:07;99540.28;;;22.26;33.87
73103;BME280;61294;65.988;29.172;2023-05-22T09:15:37;99499.81;;;22.77;33.45
73103;BME280;61294;65.988;29.172;2023-05-22T09:18:03;99505.34;;;22.50;31.49
73103;BME280;61294;65.988;29.172;2023-05-22T09:20:34;99536.00;;;23.10;32.81
73103;BME280;61294;65.988;29.172;2023-05-22T09:23:00;99527.09;;;22.88;31.48
73103;BME280;61294;65.988;29.172;2023-05-22T09:25:26;99524.09;;;22.96;30.82
73103;BME280;61294;65.988;29.172;2023-05-22T09:27:52;99525.38;;;23.30;29.97
73103;BME280;61294;65.988;29.172;2023-05-22T09:30:19;99524.81;;;23.21;30.57
73103;BME280;61294;65.988;29.172;2023-05-22T09:32:47;99518.88;;;24.16;30.12
73103;BME280;61294;65.988;29.172;2023-05-22T09:35:12;99513.41;;;24.56;29.42
73103;BME280;61294;65.988;29.172;2023-05-22T09:37:39;99511.63;;;25.96;29.76
73103;BME280;61294;65.988;29.172;2023-05-22T09:40:09;99503.56;;;29.63;24.04
73103;BME280;61294;65.988;29.172;2023-05-22T09:42:36;99508.81;;;33.83;20.28
73103;BME280;61294;65.988;29.172;2023-05-22T09:45:05;99482.34;;;35.73;19.82
73103;BME280;61294;65.988;29.172;2023-05-22T09:47:32;99469.00;;;34.62;20.00
73103;BME280;61294;65.988;29.172;2023-05-22T09:50:04;99498.69;;;35.65;19.07
73103;BME280;61294;65.988;29.172;2023-05-22T09:52:33;99471.31;;;35.25;19.16
73103;BME280;61294;65.988;29.172;2023-05-22T09:55:04;99493.25;;;35.45;18.89
73103;BME280;61294;65.988;29.172;2023-05-22T09:57:32;99475.50;;;35.10;19.29
73103;BME280;61294;65.988;29.172;2023-05-22T10:00:03;99466.41;;;36.61;18.61
73103;BME280;61294;65.988;29.172;2023-05-22T10:02:34;99469.22;;;37.60;16.26
73103;BME280;61294;65.988;29.172;2023-05-22T10:05:05;99482.38;;;38.43;15.18
73103;BME280;61294;65.988;29.172;2023-05-22T10:07:42;99480.50;;;39.52;15.77
73103;BME280;61294;65.988;29.172;2023-05-22T10:10:11;99450.28;;;37.57;16.06
73103;BME280;61294;65.988;29.172;2023-05-22T10:12:44;99466.22;;;34.12;18.29
73103;BME280;61294;65.988;29.172;2023-05-22T10:15:12;99469.47;;;35.36;18.29
73103;BME280;61294;65.988;29.172;2023-05-22T10:17:39;99444.13;;;39.08;15.88
73103;BME280;61294;65.988;29.172;2023-05-22T10:20:07;99479.47;;;37.58;17.12
73103;BME280;61294;65.988;29.172;2023-05-22T10:22:36;99467.56;;;38.95;14.59
73103;BME280;61294;65.988;29.172;2023-05-22T10:25:02;99467.88;;;37.90;15.08
73103;BME280;61294;65.988;29.172;2023-05-22T10:27:28;99453.63;;;38.97;13.68
73103;BME280;61294;65.988;29.172;2023-05-22T10:30:17;99462.63;;;40.44;14.88
73103;BME280;61294;65.988;29.172;2023-05-22T10:33:06;99450.41;;;42.22;14.43
73103;BME280;61294;65.988;29.172;2023-05-22T10:41:02;99451.19;;;43.11;12.93
73103;BME280;61294;65.988;29.172;2023-05-22T10:43:29;99426.41;;;38.77;15.71
73103;BME280;61294;65.988;29.172;2023-05-22T10:46:05;99449.09;;;34.40;16.79
73103;BME280;61294;65.988;29.172;2023-05-22T10:48:44;99448.22;;;31.48;19.15
73103;BME280;61294;65.988;29.172;2023-05-22T10:51:17;99445.19;;;30.81;22.30
73103;BME280;61294;65.988;29.172;2023-05-22T10:53:44;99421.28;;;30.12;22.37
73103;BME280;61294;65.988;29.172;2023-05-22T10:56:17;99448.94;;;29.93;22.15
73103;BME280;61294;65.988;29.172;2023-05-22T10:58:45;99448.03;;;29.29;24.17
73103;BME280;61294;65.988;29.172;2023-05-22T11:01:20;99440.22;;;27.43;23.24
73103;BME280;61294;65.988;29.172;2023-05-22T11:03:55;99412.06;;;27.16;25.00
73103;BME280;61294;65.988;29.172;2023-05-22T11:06:33;99412.69;;;27.36;25.02
73103;BME280;61294;65.988;29.172;2023-05-22T11:08:59;99432.78;;;27.46;25.86
73103;BME280;61294;65.988;29.172;2023-05-22T11:11:40;99433.38;;;28.51;25.25
73103;BME280;61294;65.988;29.172;2023-05-22T11:14:06;99405.81;;;32.02;22.61
73103;BME280;61294;65.988;29.172;2023-05-22T11:16:32;99422.56;;;36.70;17.55
73103;BME280;61294;65.988;29.172;2023-05-22T11:19:05;99421.72;;;34.50;19.19
73103;BME280;61294;65.988;29.172;2023-05-22T11:21:41;99405.78;;;31.57;20.40
73103;BME280;61294;65.988;29.172;2023-05-22T11:24:07;99398.28;;;29.79;21.17
73103;BME280;61294;65.988;29.172;2023-05-22T11:26:33;99419.28;;;29.65;23.21
73103;BME280;61294;65.988;29.172;2023-05-22T11:29:00;99406.69;;;33.53;20.20
73103;BME280;61294;65.988;29.172;2023-05-22T11:31:26;99418.06;;;38.44;16.76
73103;BME280;61294;65.988;29.172;2023-05-22T11:33:52;99409.38;;;40.67;14.13
73103;BME280;61294;65.988;29.172;2023-05-22T11:36:18;99410.44;;;38.22;15.96
73103;BME280;61294;65.988;29.172;2023-05-22T11:38:44;99414.59;;;34.18;16.97
73103;BME280;61294;65.988;29.172;2023-05-22T11:41:10;99411.53;;;30.83;19.47
73103;BME280;61294;65.988;29.172;2023-05-22T11:43:37;99393.97;;;30.75;21.72
73103;BME280;61294;65.988;29.172;2023-05-22T11:46:07;99409.00;;;32.41;19.87
73103;BME280;61294;65.988;29.172;2023-05-22T11:48:34;99405.75;;;34.36;17.91
73103;BME280;61294;65.988;29.172;2023-05-22T11:51:01;99405.75;;;34.46;17.83
73103;BME280;61294;65.988;29.172;2023-05-22T11:53:30;99405.19;;;35.30;17.28
73103;BME280;61294;65.988;29.172;2023-05-22T11:56:03;99398.84;;;33.39;18.25
73103;BME280;61294;65.988;29.172;2023-05-22T11:58:30;99401.56;;;33.60;18.11
73103;BME280;61294;65.988;29.172;2023-05-22T12:01:03;99374.97;;;35.02;16.37
73103;BME280;61294;65.988;29.172;2023-05-22T12:03:29;99400.38;;;37.17;16.97
73103;BME280;61294;65.988;29.172;2023-05-22T12:05:56;99397.16;;;35.09;15.39
73103;BME280;61294;65.988;29.172;2023-05-22T12:08:23;99405.47;;;34.49;17.19
73103;BME280;61294;65.988;29.172;2023-05-22T12:10:50;99386.13;;;35.29;16.28
73103;BME280;61294;65.988;29.172;2023-05-22T12:13:26;99387.16;;;37.21;15.41
73103;BME280;61294;65.988;29.172;2023-05-22T12:15:54;99394.38;;;38.76;13.81
73103;BME280;61294;65.988;29.172;2023-05-22T12:18:20;99390.38;;;37.95;15.83
73103;BME280;61294;65.988;29.172;2023-05-22T12:20:50;99378.69;;;38.52;14.17
73103;BME280;61294;65.988;29.172;2023-05-22T12:23:23;99390.78;;;38.08;14.60
73103;BME280;61294;65.988;29.172;2023-05-22T12:26:00;99388.28;;;38.48;14.40
73103;BME280;61294;65.988;29.172;2023-05-22T12:28:26;99380.06;;;39.47;12.93
73103;BME280;61294;65.988;29.172;2023-05-22T12:30:56;99374.66;;;40.96;13.67
73103;BME280;61294;65.988;29.172;2023-05-22T12:33:29;99355.16;;;41.27;13.53
73103;BME280;61294;65.988;29.172;2023-05-22T12:35:56;99364.06;;;41.37;12.35
73103;BME280;61294;65.988;29.172;2023-05-22T12:38:29;99370.06;;;42.01;11.39
73103;BME280;61294;65.988;29.172;2023-05-22T12:40:55;99354.25;;;41.50;12.92
73103;BME280;61294;65.988;29.172;2023-05-22T12:43:24;99368.63;;;42.41;12.88
73103;BME280;61294;65.988;29.172;2023-05-22T12:45:50;99372.88;;;42.59;11.20
73103;BME280;61294;65.988;29.172;2023-05-22T12:48:17;99356.00;;;42.32;12.28
73103;BME280;61294;65.988;29.172;2023-05-22T12:50:43;99361.91;;;42.94;10.72
73103;BME280;61294;65.988;29.172;2023-05-22T12:53:09;99362.31;;;42.26;13.20
73103;BME280;61294;65.988;29.172;2023-05-22T12:55:35;99352.59;;;40.87;13.45
73103;BME280;61294;65.988;29.172;2023-05-22T12:58:01;99343.94;;;38.43;13.51
73103;BME280;61294;65.988;29.172;2023-05-22T13:00:27;99322.69;;;37.07;15.33
73103;BME280;61294;65.988;29.172;2023-05-22T13:02:52;99342.94;;;36.61;13.96
73103;BME280;61294;65.988;29.172;2023-05-22T13:05:18;99316.34;;;36.44;14.79
73103;BME280;61294;65.988;29.172;2023-05-22T13:07:44;99309.72;;;36.01;16.43
73103;BME280;61294;65.988;29.172;2023-05-22T13:10:10;99317.19;;;37.07;14.90
73103;BME280;61294;65.988;29.172;2023-05-22T13:12:35;99291.06;;;38.06;14.62